Time;durP1;ratioP1;P1;durP2;ratioP2;P2;SDS_P1;SDS_P2;PMS_P1;PMS_P2;Temp;Humidity;BMP_temperature;BMP_pressure;BME280_temperature;BME280_humidity;BME280_pressure;Samples;Min_cycle;Max_cycle;Signal;HPM_P1;HPM_P2
2022/06/02 00:01:21;;;;;;;;;;;12.70;99.90;;;;;;5074985;28;21273;-73
2022/06/02 00:03:58;;;;;;;;;;;12.60;99.90;;;;;;5058099;28;20296;-73
2022/06/02 00:06:43;;;;;;;;;;;12.70;99.90;;;;;;5091190;28;19929;-73
2022/06/02 00:09:24;;;;;;;;;;;12.70;99.90;;;;;;5068584;28;19928;-74
2022/06/02 00:12:01;;;;;;;;;;;12.60;99.90;;;;;;5083890;28;20365;-74
2022/06/02 00:14:50;;;;;;;;;;;12.60;99.90;;;;;;5062367;28;19928;-74
2022/06/02 00:17:26;;;;;;;;;;;12.70;99.90;;;;;;5080295;28;20184;-74
2022/06/02 00:20:08;;;;;;;;;;;12.70;99.90;;;;;;5073149;28;20305;-74
2022/06/02 00:22:45;;;;;;;;;;;12.80;99.90;;;;;;5080875;28;20038;-73
2022/06/02 00:25:16;;;;;;;;;;;12.90;99.90;;;;;;5060752;28;19978;-73
2022/06/02 00:28:14;;;;;;;;;;;12.90;99.90;;;;;;5061164;28;20282;-73
2022/06/02 00:31:01;;;;;;;;;;;12.90;99.90;;;;;;5027934;28;20389;-73
2022/06/02 00:33:51;;;;;;;;;;;13.00;99.90;;;;;;5079051;28;19935;-73
2022/06/02 00:36:26;;;;;;;;;;;13.00;99.90;;;;;;5058839;28;19930;-73
2022/06/02 00:38:59;;;;;;;;;;;13.00;99.90;;;;;;5090633;28;20007;-74
2022/06/02 00:41:30;;;;;;;;;;;13.00;99.90;;;;;;5060803;28;20407;-74
2022/06/02 00:44:02;;;;;;;;;;;13.00;99.90;;;;;;5074727;28;19924;-74
2022/06/02 00:46:33;;;;;;;;;;;13.00;99.90;;;;;;5084907;28;19931;-73
2022/06/02 00:49:21;;;;;;;;;;;13.10;99.90;;;;;;5069854;28;20015;-74
2022/06/02 00:51:53;;;;;;;;;;;13.10;99.90;;;;;;5084547;28;20408;-73
2022/06/02 00:57:34;;;;;;;;;;;13.00;99.90;;;;;;5081529;28;19935;-74
2022/06/02 01:00:17;;;;;;;;;;;13.00;99.90;;;;;;5057911;28;20285;-73
2022/06/02 01:02:53;;;;;;;;;;;13.00;99.90;;;;;;5066791;28;20325;-74
2022/06/02 01:05:25;;;;;;;;;;;13.00;99.90;;;;;;5075255;28;19932;-74
2022/06/02 01:08:14;;;;;;;;;;;13.00;99.90;;;;;;5079975;28;19924;-74
2022/06/02 01:10:53;;;;;;;;;;;12.90;99.90;;;;;;5056540;28;20277;-74
2022/06/02 01:13:28;;;;;;;;;;;13.00;99.90;;;;;;5080915;28;19930;-74
2022/06/02 01:16:03;;;;;;;;;;;12.90;99.90;;;;;;5080088;28;19947;-74
2022/06/02 01:18:38;;;;;;;;;;;12.90;99.90;;;;;;5061402;28;20417;-73
2022/06/02 01:21:13;;;;;;;;;;;12.80;99.90;;;;;;5103091;28;19935;-74
2022/06/02 01:23:47;;;;;;;;;;;12.80;99.90;;;;;;5076399;28;19928;-74
2022/06/02 01:26:18;;;;;;;;;;;12.70;99.90;;;;;;5095140;28;19924;-74
2022/06/02 01:29:09;;;;;;;;;;;12.60;99.90;;;;;;5069958;28;19929;-73
2022/06/02 01:31:49;;;;;;;;;;;12.50;99.90;;;;;;5066041;28;20019;-73
2022/06/02 01:34:31;;;;;;;;;;;12.40;99.90;;;;;;5073004;28;19928;-74
2022/06/02 01:37:27;;;;;;;;;;;12.30;99.90;;;;;;5081811;28;20459;-73
2022/06/02 01:40:13;;;;;;;;;;;12.30;99.90;;;;;;5073152;28;20270;-74
2022/06/02 01:42:46;;;;;;;;;;;12.20;99.90;;;;;;5068002;28;19929;-73
2022/06/02 01:45:41;;;;;;;;;;;12.30;99.90;;;;;;5056649;28;20296;-74
2022/06/02 01:48:29;;;;;;;;;;;12.30;99.90;;;;;;5082592;28;19932;-74
2022/06/02 01:51:07;;;;;;;;;;;12.20;99.90;;;;;;5074410;28;19931;-74
2022/06/02 01:53:38;;;;;;;;;;;12.20;99.90;;;;;;5080334;28;19935;-73
2022/06/02 01:56:18;;;;;;;;;;;12.20;99.90;;;;;;5097858;28;19931;-74
2022/06/02 01:59:12;;;;;;;;;;;12.20;99.90;;;;;;5081846;28;19928;-74
2022/06/02 02:02:02;;;;;;;;;;;12.20;99.90;;;;;;5070691;28;19924;-73
2022/06/02 02:04:37;;;;;;;;;;;12.20;99.90;;;;;;5081449;28;20385;-74
2022/06/02 02:07:22;;;;;;;;;;;12.20;99.90;;;;;;5087832;28;19935;-74
2022/06/02 02:10:32;;;;;;;;;;;12.20;99.90;;;;;;5068366;28;19929;-73
2022/06/02 02:13:13;;;;;;;;;;;12.20;99.90;;;;;;5012599;28;19925;-73
2022/06/02 02:15:45;;;;;;;;;;;12.30;99.90;;;;;;5007316;28;20294;-74
2022/06/02 02:18:19;;;;;;;;;;;12.30;99.90;;;;;;5041982;28;19932;-74
2022/06/02 02:20:58;;;;;;;;;;;12.30;99.90;;;;;;5068997;28;19929;-74
2022/06/02 02:23:41;;;;;;;;;;;12.20;99.90;;;;;;5081736;28;19924;-73
2022/06/02 02:26:15;;;;;;;;;;;12.20;99.90;;;;;;5074449;28;19935;-74
2022/06/02 02:28:57;;;;;;;;;;;12.10;99.90;;;;;;5065735;28;19935;-74
2022/06/02 02:31:37;;;;;;;;;;;12.10;99.90;;;;;;5087928;28;19925;-73
2022/06/02 02:34:09;;;;;;;;;;;12.10;99.90;;;;;;5061575;28;19925;-73
2022/06/02 02:37:05;;;;;;;;;;;12.00;99.90;;;;;;5057520;28;19936;-73
2022/06/02 02:39:55;;;;;;;;;;;12.10;99.90;;;;;;5072168;28;19927;-74
2022/06/02 02:42:36;;;;;;;;;;;12.10;99.90;;;;;;5073307;28;20128;-73
2022/06/02 02:45:26;;;;;;;;;;;12.10;99.90;;;;;;5066746;28;19930;-73
2022/06/02 02:48:05;;;;;;;;;;;12.10;99.90;;;;;;5072591;28;19928;-73
2022/06/02 02:50:41;;;;;;;;;;;12.10;99.90;;;;;;5077845;28;19924;-74
2022/06/02 02:53:15;;;;;;;;;;;12.20;99.90;;;;;;5065799;28;19929;-74
2022/06/02 02:55:47;;;;;;;;;;;12.20;99.90;;;;;;5067872;28;19928;-75
2022/06/02 02:58:28;;;;;;;;;;;12.10;99.90;;;;;;5078356;28;20401;-73
2022/06/02 03:01:05;;;;;;;;;;;12.10;99.90;;;;;;5076985;28;20278;-73
2022/06/02 03:03:40;;;;;;;;;;;12.10;99.90;;;;;;5060483;28;19929;-73
2022/06/02 03:06:24;;;;;;;;;;;12.00;99.90;;;;;;5073009;28;20305;-73
2022/06/02 03:09:02;;;;;;;;;;;12.00;99.90;;;;;;5082075;28;19932;-74
2022/06/02 03:11:34;;;;;;;;;;;12.00;99.90;;;;;;5088517;28;19932;-74
2022/06/02 03:14:25;;;;;;;;;;;12.00;99.90;;;;;;5061319;28;19924;-73
2022/06/02 03:17:02;;;;;;;;;;;12.10;99.90;;;;;;5073106;28;19929;-74
2022/06/02 03:20:12;;;;;;;;;;;12.10;99.90;;;;;;5079273;28;19935;-73
2022/06/02 03:23:02;;;;;;;;;;;12.20;99.90;;;;;;5012379;28;20283;-73
2022/06/02 03:25:42;;;;;;;;;;;12.10;99.90;;;;;;5018384;28;20032;-74
2022/06/02 03:28:16;;;;;;;;;;;12.10;99.90;;;;;;5070802;28;19951;-74
2022/06/02 03:30:57;;;;;;;;;;;12.20;99.90;;;;;;5083711;28;19929;-73
2022/06/02 03:33:48;;;;;;;;;;;12.20;99.90;;;;;;5055897;28;19932;-73
2022/06/02 03:36:30;;;;;;;;;;;12.20;99.90;;;;;;5065938;28;19932;-73
2022/06/02 03:39:18;;;;;;;;;;;12.20;99.90;;;;;;5060146;28;19925;-73
2022/06/02 03:42:05;;;;;;;;;;;12.20;99.90;;;;;;5069548;28;19928;-73
2022/06/02 03:44:36;;;;;;;;;;;12.20;99.90;;;;;;5086672;28;20367;-73
2022/06/02 03:47:23;;;;;;;;;;;12.20;99.90;;;;;;5068507;28;19928;-74
2022/06/02 03:50:04;;;;;;;;;;;12.30;99.90;;;;;;5100477;28;19956;-73
2022/06/02 03:52:39;;;;;;;;;;;12.30;99.90;;;;;;5073842;28;19939;-74
2022/06/02 03:55:19;;;;;;;;;;;12.30;99.90;;;;;;5086547;28;19925;-74
2022/06/02 03:58:00;;;;;;;;;;;12.30;99.90;;;;;;5052400;28;19929;-74
2022/06/02 04:00:49;;;;;;;;;;;12.30;99.90;;;;;;5058186;28;20296;-74
2022/06/02 04:03:33;;;;;;;;;;;12.30;99.90;;;;;;5068196;28;20408;-75
2022/06/02 04:06:23;;;;;;;;;;;12.30;99.90;;;;;;5061826;28;19928;-72
2022/06/02 04:08:57;;;;;;;;;;;12.20;99.90;;;;;;5087452;28;19924;-74
2022/06/02 04:14:57;;;;;;;;;;;12.40;99.90;;;;;;5011085;28;19930;-74
2022/06/02 04:17:41;;;;;;;;;;;12.60;99.90;;;;;;5002987;28;19929;-72
2022/06/02 04:20:37;;;;;;;;;;;12.90;99.90;;;;;;5052960;28;19934;-74
2022/06/02 04:23:17;;;;;;;;;;;13.00;99.90;;;;;;5084007;28;19935;-73
2022/06/02 04:26:08;;;;;;;;;;;13.10;99.90;;;;;;5084712;28;19929;-73
2022/06/02 04:28:54;;;;;;;;;;;13.10;99.90;;;;;;5066537;28;19924;-73
2022/06/02 04:31:32;;;;;;;;;;;13.20;99.90;;;;;;5102968;28;19928;-73
2022/06/02 04:34:08;;;;;;;;;;;13.10;99.90;;;;;;5102308;28;19932;-73
2022/06/02 04:36:42;;;;;;;;;;;13.20;99.90;;;;;;5078336;28;19932;-73
2022/06/02 04:39:33;;;;;;;;;;;13.20;99.90;;;;;;5064767;28;19931;-73
2022/06/02 04:42:23;;;;;;;;;;;13.30;99.90;;;;;;5059661;28;19925;-74
2022/06/02 04:45:00;;;;;;;;;;;13.40;99.90;;;;;;5084278;28;19935;-73
2022/06/02 04:47:50;;;;;;;;;;;13.40;99.90;;;;;;5085872;28;19939;-73
2022/06/02 04:50:41;;;;;;;;;;;13.50;99.90;;;;;;5080286;28;19924;-73
2022/06/02 04:53:19;;;;;;;;;;;13.50;99.90;;;;;;5101889;28;19924;-74
2022/06/02 04:56:10;;;;;;;;;;;13.60;99.90;;;;;;5060824;28;20174;-73
2022/06/02 04:59:03;;;;;;;;;;;13.60;99.90;;;;;;5074262;28;19924;-74
2022/06/02 05:01:54;;;;;;;;;;;13.60;99.90;;;;;;5094626;28;20327;-73
2022/06/02 05:04:44;;;;;;;;;;;13.60;99.90;;;;;;5104670;28;19928;-72
2022/06/02 05:07:28;;;;;;;;;;;13.50;99.90;;;;;;5115588;28;20335;-74
2022/06/02 05:10:08;;;;;;;;;;;13.40;99.90;;;;;;5115515;28;20028;-73
2022/06/02 05:12:49;;;;;;;;;;;13.40;99.90;;;;;;5085075;28;19925;-72
2022/06/02 05:15:40;;;;;;;;;;;13.40;99.90;;;;;;5065273;28;20380;-72
2022/06/02 05:18:11;;;;;;;;;;;13.50;99.90;;;;;;5084446;28;19924;-73
2022/06/02 05:20:58;;;;;;;;;;;13.40;99.90;;;;;;5062293;28;19929;-73
2022/06/02 05:23:32;;;;;;;;;;;13.30;99.90;;;;;;5075265;28;19924;-73
2022/06/02 05:26:23;;;;;;;;;;;13.20;99.90;;;;;;5109431;28;19932;-73
2022/06/02 05:29:05;;;;;;;;;;;13.20;99.90;;;;;;5105151;28;19924;-73
2022/06/02 05:31:40;;;;;;;;;;;13.20;99.90;;;;;;5096279;28;19924;-73
2022/06/02 05:34:14;;;;;;;;;;;13.30;99.90;;;;;;5095548;28;19931;-72
2022/06/02 05:36:52;;;;;;;;;;;13.20;99.90;;;;;;5075169;28;19932;-73
2022/06/02 05:39:24;;;;;;;;;;;13.30;99.90;;;;;;5075116;28;19931;-74
2022/06/02 05:41:53;;;;;;;;;;;13.30;99.90;;;;;;5076072;28;19924;-72
2022/06/02 05:44:23;;;;;;;;;;;13.30;99.90;;;;;;5093029;28;20535;-73
2022/06/02 05:47:14;;;;;;;;;;;13.30;99.90;;;;;;5091841;28;19924;-73
2022/06/02 05:50:06;;;;;;;;;;;13.20;99.90;;;;;;5071979;28;19925;-74
2022/06/02 05:52:59;;;;;;;;;;;13.20;99.90;;;;;;5103665;28;19935;-73
2022/06/02 05:55:42;;;;;;;;;;;13.20;99.90;;;;;;5091279;28;19924;-73
2022/06/02 05:58:20;;;;;;;;;;;13.20;99.90;;;;;;5090887;28;19931;-73
2022/06/02 06:01:10;;;;;;;;;;;13.20;99.90;;;;;;5087316;28;20918;-74
2022/06/02 06:03:55;;;;;;;;;;;13.30;99.90;;;;;;5089276;28;19924;-75
2022/06/02 06:06:22;;;;;;;;;;;13.20;99.90;;;;;;5076009;28;19931;-73
2022/06/02 06:09:12;;;;;;;;;;;13.20;99.90;;;;;;5096549;28;20581;-73
2022/06/02 06:12:03;;;;;;;;;;;13.30;99.90;;;;;;5092730;28;19931;-74
2022/06/02 06:14:49;;;;;;;;;;;13.30;99.90;;;;;;5078915;28;19927;-74
2022/06/02 06:17:20;;;;;;;;;;;13.30;99.90;;;;;;5073792;28;19924;-73
2022/06/02 06:20:02;;;;;;;;;;;13.40;99.90;;;;;;5076595;28;19935;-73
2022/06/02 06:23:03;;;;;;;;;;;13.30;99.90;;;;;;5066069;28;19955;-72
2022/06/02 06:25:41;;;;;;;;;;;13.30;99.90;;;;;;5065671;28;20375;-73
2022/06/02 06:28:09;;;;;;;;;;;13.30;99.90;;;;;;5059032;28;19928;-73
2022/06/02 06:30:45;;;;;;;;;;;13.30;99.90;;;;;;5056481;28;19925;-72
2022/06/02 06:33:36;;;;;;;;;;;13.30;99.90;;;;;;5080107;28;19931;-73
2022/06/02 06:36:07;;;;;;;;;;;13.30;99.90;;;;;;5085480;28;19934;-74
2022/06/02 06:38:47;;;;;;;;;;;13.40;99.90;;;;;;5081137;28;20027;-72
2022/06/02 06:41:30;;;;;;;;;;;13.50;99.90;;;;;;5073874;28;20384;-73
2022/06/02 06:44:05;;;;;;;;;;;13.50;99.90;;;;;;5082648;28;19924;-73
2022/06/02 06:46:43;;;;;;;;;;;13.60;99.90;;;;;;5095121;28;19924;-73
2022/06/02 06:49:33;;;;;;;;;;;13.60;99.90;;;;;;5100516;28;19931;-73
2022/06/02 06:52:08;;;;;;;;;;;13.70;99.90;;;;;;5109220;28;20440;-73
2022/06/02 06:55:02;;;;;;;;;;;13.80;99.90;;;;;;5079343;28;19959;-73
2022/06/02 06:57:41;;;;;;;;;;;13.90;99.90;;;;;;5084382;28;19932;-73
2022/06/02 07:00:22;;;;;;;;;;;13.90;99.90;;;;;;5095504;28;19949;-73
2022/06/02 07:03:03;;;;;;;;;;;14.00;99.90;;;;;;5080348;28;19931;-73
2022/06/02 07:05:36;;;;;;;;;;;14.10;99.90;;;;;;5093831;28;20330;-72
2022/06/02 07:08:17;;;;;;;;;;;14.10;99.90;;;;;;5101088;28;19924;-73
2022/06/02 07:10:59;;;;;;;;;;;14.20;99.90;;;;;;5076998;28;20373;-73
2022/06/02 07:13:35;;;;;;;;;;;14.20;99.90;;;;;;5084101;28;20298;-73
2022/06/02 07:16:18;;;;;;;;;;;14.30;99.90;;;;;;5079825;28;19931;-73
2022/06/02 07:18:56;;;;;;;;;;;14.40;99.90;;;;;;5091232;28;19930;-72
2022/06/02 07:21:37;;;;;;;;;;;14.50;99.90;;;;;;5113132;28;19928;-73
2022/06/02 07:24:18;;;;;;;;;;;14.60;99.90;;;;;;5074377;28;19925;-73
2022/06/02 07:27:04;;;;;;;;;;;14.70;99.90;;;;;;5055870;28;19935;-74
2022/06/02 07:29:46;;;;;;;;;;;14.80;99.90;;;;;;5103427;28;19924;-73
2022/06/02 07:32:30;;;;;;;;;;;14.90;99.90;;;;;;5090382;28;19935;-72
2022/06/02 07:35:13;;;;;;;;;;;14.90;99.90;;;;;;5087651;28;19931;-73
2022/06/02 07:38:01;;;;;;;;;;;15.00;99.90;;;;;;5064258;28;19931;-72
2022/06/02 07:40:48;;;;;;;;;;;15.10;99.90;;;;;;5100562;28;20292;-73
2022/06/02 07:43:33;;;;;;;;;;;15.20;99.90;;;;;;5089525;28;19924;-73
2022/06/02 07:46:11;;;;;;;;;;;15.40;99.90;;;;;;5064054;28;20301;-73
2022/06/02 07:48:41;;;;;;;;;;;15.50;99.90;;;;;;5083236;28;20423;-73
2022/06/02 07:51:21;;;;;;;;;;;15.50;99.90;;;;;;5071181;28;19924;-74
2022/06/02 07:54:05;;;;;;;;;;;15.70;99.90;;;;;;5085744;28;19931;-73
2022/06/02 07:56:45;;;;;;;;;;;15.80;99.90;;;;;;5116194;27;19924;-73
2022/06/02 07:59:37;;;;;;;;;;;15.90;99.90;;;;;;5077808;28;19924;-73
2022/06/02 08:02:32;;;;;;;;;;;16.00;99.90;;;;;;5104095;28;20471;-74
2022/06/02 08:05:06;;;;;;;;;;;16.10;99.90;;;;;;5104748;28;20318;-73
2022/06/02 08:07:48;;;;;;;;;;;16.20;99.90;;;;;;5071845;28;20389;-73
2022/06/02 08:10:25;;;;;;;;;;;16.30;99.90;;;;;;5056982;28;20683;-73
2022/06/02 08:13:02;;;;;;;;;;;16.40;99.90;;;;;;5092655;28;19924;-73
2022/06/02 08:15:34;;;;;;;;;;;16.40;99.90;;;;;;5084852;28;19928;-73
2022/06/02 08:18:12;;;;;;;;;;;16.50;99.90;;;;;;5075521;28;20416;-73
2022/06/02 08:20:56;;;;;;;;;;;16.60;99.90;;;;;;5091151;28;19931;-73
2022/06/02 08:23:46;;;;;;;;;;;16.70;99.90;;;;;;5071888;28;19924;-73
2022/06/02 08:26:22;;;;;;;;;;;16.90;99.90;;;;;;5071149;28;19931;-74
2022/06/02 08:29:03;;;;;;;;;;;17.00;99.90;;;;;;5084896;28;19947;-73
2022/06/02 08:31:53;;;;;;;;;;;17.10;99.90;;;;;;5075659;28;19924;-74
2022/06/02 08:34:37;;;;;;;;;;;17.20;99.90;;;;;;5074586;28;19928;-74
2022/06/02 08:37:13;;;;;;;;;;;17.40;99.90;;;;;;5075411;28;19924;-75
2022/06/02 08:40:04;;;;;;;;;;;17.40;99.90;;;;;;5089950;28;19924;-73
2022/06/02 08:42:49;;;;;;;;;;;17.50;99.90;;;;;;5089001;28;19924;-73
2022/06/02 08:45:40;;;;;;;;;;;17.60;99.90;;;;;;5088063;28;19932;-73
2022/06/02 08:48:08;;;;;;;;;;;17.70;99.90;;;;;;5092605;28;19935;-73
2022/06/02 08:50:50;;;;;;;;;;;17.80;99.90;;;;;;5077665;28;19935;-74
2022/06/02 08:53:41;;;;;;;;;;;17.80;99.90;;;;;;5085553;28;19938;-74
2022/06/02 08:56:19;;;;;;;;;;;17.90;99.90;;;;;;5080464;28;19924;-72
2022/06/02 08:59:07;;;;;;;;;;;17.90;99.90;;;;;;5069016;28;20273;-74
2022/06/02 09:01:51;;;;;;;;;;;18.00;99.90;;;;;;5067502;28;19928;-73
2022/06/02 09:04:36;;;;;;;;;;;18.00;99.90;;;;;;5095607;28;19928;-74
2022/06/02 09:07:23;;;;;;;;;;;18.10;99.90;;;;;;5093357;28;19928;-73
2022/06/02 09:09:50;;;;;;;;;;;18.20;99.90;;;;;;5083369;28;20030;-72
2022/06/02 09:12:40;;;;;;;;;;;18.30;99.90;;;;;;5094420;28;19924;-73
2022/06/02 09:15:31;;;;;;;;;;;18.40;99.90;;;;;;5091152;28;19924;-73
2022/06/02 09:18:12;;;;;;;;;;;18.50;99.90;;;;;;5089025;28;19932;-73
2022/06/02 09:20:44;;;;;;;;;;;18.60;99.90;;;;;;5105304;27;19928;-73
2022/06/02 09:23:16;;;;;;;;;;;18.60;99.90;;;;;;5091528;28;19932;-73
2022/06/02 09:25:55;;;;;;;;;;;18.70;99.90;;;;;;5084050;28;19939;-72
2022/06/02 09:28:28;;;;;;;;;;;18.80;99.90;;;;;;5089157;28;19935;-73
2022/06/02 09:30:59;;;;;;;;;;;19.00;99.90;;;;;;5105137;28;20411;-73
2022/06/02 09:33:34;;;;;;;;;;;19.00;99.90;;;;;;5094396;28;19928;-73
2022/06/02 09:36:31;;;;;;;;;;;19.10;99.90;;;;;;5080269;28;19930;-73
2022/06/02 09:39:09;;;;;;;;;;;19.10;99.90;;;;;;5092596;28;19924;-73
2022/06/02 09:41:56;;;;;;;;;;;19.20;99.90;;;;;;5077457;28;19925;-74
2022/06/02 09:44:41;;;;;;;;;;;19.20;99.90;;;;;;5086734;28;19933;-74
2022/06/02 09:47:27;;;;;;;;;;;19.40;99.90;;;;;;5101940;28;19935;-73
2022/06/02 09:50:14;;;;;;;;;;;19.50;99.90;;;;;;5074404;28;20396;-73
2022/06/02 09:53:04;;;;;;;;;;;19.60;99.90;;;;;;5101898;28;19923;-73
2022/06/02 09:56:02;;;;;;;;;;;19.70;99.90;;;;;;5092373;28;20001;-73
2022/06/02 09:58:36;;;;;;;;;;;19.80;99.90;;;;;;5072509;28;19936;-73
2022/06/02 10:01:19;;;;;;;;;;;19.90;99.90;;;;;;5066293;28;20412;-73
2022/06/02 10:03:59;;;;;;;;;;;19.90;99.90;;;;;;5102107;28;19938;-74
2022/06/02 10:06:51;;;;;;;;;;;19.90;99.90;;;;;;5091141;28;19935;-72
2022/06/02 10:09:27;;;;;;;;;;;20.00;99.90;;;;;;5097767;28;19931;-73
2022/06/02 10:15:16;;;;;;;;;;;20.20;99.90;;;;;;5075766;28;20373;-73
2022/06/02 10:17:48;;;;;;;;;;;20.40;99.90;;;;;;5102815;27;19924;-73
2022/06/02 10:20:18;;;;;;;;;;;20.50;99.90;;;;;;5097388;28;20022;-73
2022/06/02 10:22:58;;;;;;;;;;;20.60;99.90;;;;;;5084850;28;19928;-73
2022/06/02 10:25:51;;;;;;;;;;;20.70;99.90;;;;;;5099077;28;20415;-73
2022/06/02 10:28:23;;;;;;;;;;;20.80;99.90;;;;;;5097452;28;20291;-72
2022/06/02 10:31:10;;;;;;;;;;;20.90;99.90;;;;;;5098816;28;20430;-73
2022/06/02 10:33:48;;;;;;;;;;;21.00;99.90;;;;;;5099199;28;20011;-73
2022/06/02 10:36:20;;;;;;;;;;;21.10;99.90;;;;;;5094628;28;20372;-73
2022/06/02 10:39:04;;;;;;;;;;;21.10;99.90;;;;;;5105488;27;19924;-73
2022/06/02 10:41:46;;;;;;;;;;;21.20;99.90;;;;;;5075271;28;19925;-73
2022/06/02 10:44:19;;;;;;;;;;;21.30;99.90;;;;;;5086719;28;20399;-73
2022/06/02 10:47:04;;;;;;;;;;;21.30;99.90;;;;;;5071200;28;20407;-73
2022/06/02 10:49:54;;;;;;;;;;;21.40;99.90;;;;;;5089872;28;19924;-73
2022/06/02 10:52:30;;;;;;;;;;;21.50;99.90;;;;;;5101231;28;19931;-75
2022/06/02 10:55:22;;;;;;;;;;;21.60;99.90;;;;;;5084885;28;19924;-74
2022/06/02 10:58:08;;;;;;;;;;;21.60;99.90;;;;;;5062497;28;20537;-73
2022/06/02 11:00:50;;;;;;;;;;;21.50;99.90;;;;;;5071037;28;19931;-73
2022/06/02 11:03:41;;;;;;;;;;;21.50;99.90;;;;;;5088620;28;19928;-73
2022/06/02 11:06:31;;;;;;;;;;;21.50;99.90;;;;;;5076930;28;20422;-73
2022/06/02 11:09:13;;;;;;;;;;;21.70;99.90;;;;;;5104295;28;19924;-73
2022/06/02 11:12:03;;;;;;;;;;;21.80;99.90;;;;;;5072804;28;19924;-74
2022/06/02 11:14:44;;;;;;;;;;;22.00;99.90;;;;;;5090816;28;19950;-73
2022/06/02 11:17:31;;;;;;;;;;;22.10;99.90;;;;;;5086272;28;20419;-73
2022/06/02 11:19:58;;;;;;;;;;;22.10;99.90;;;;;;5071746;28;19931;-74
2022/06/02 11:22:57;;;;;;;;;;;22.20;99.90;;;;;;5091920;28;19928;-73
2022/06/02 11:25:33;;;;;;;;;;;22.30;99.90;;;;;;5074298;28;20222;-73
2022/06/02 11:28:04;;;;;;;;;;;22.40;99.90;;;;;;5100187;28;19928;-73
2022/06/02 11:30:57;;;;;;;;;;;22.50;99.90;;;;;;5082880;28;19931;-73
2022/06/02 11:33:35;;;;;;;;;;;22.50;99.90;;;;;;5084155;28;20434;-73
2022/06/02 11:36:19;;;;;;;;;;;22.40;99.90;;;;;;5081668;28;19928;-73
2022/06/02 11:38:48;;;;;;;;;;;22.40;99.90;;;;;;5067323;28;19928;-73
2022/06/02 11:41:34;;;;;;;;;;;22.70;99.90;;;;;;5098373;28;19977;-73
2022/06/02 11:44:09;;;;;;;;;;;22.80;99.90;;;;;;5068853;28;19936;-73
2022/06/02 11:47:00;;;;;;;;;;;22.80;99.90;;;;;;5052216;28;20442;-73
2022/06/02 11:49:50;;;;;;;;;;;22.90;99.70;;;;;;5068866;28;19927;-73
2022/06/02 11:52:25;;;;;;;;;;;22.80;99.90;;;;;;5082399;28;20337;-73
2022/06/02 11:55:10;;;;;;;;;;;22.80;99.90;;;;;;5060678;28;19929;-73
2022/06/02 11:57:57;;;;;;;;;;;23.00;99.90;;;;;;5062134;28;19924;-73
2022/06/02 12:00:48;;;;;;;;;;;23.10;99.90;;;;;;5060597;28;19939;-73
2022/06/02 12:03:46;;;;;;;;;;;23.10;99.90;;;;;;5085089;28;20360;-73
2022/06/02 12:06:18;;;;;;;;;;;23.00;99.90;;;;;;5056648;28;20567;-73
2022/06/02 12:09:10;;;;;;;;;;;23.10;99.90;;;;;;5063229;28;19935;-73
2022/06/02 12:11:42;;;;;;;;;;;23.20;99.90;;;;;;5060865;28;19924;-73
2022/06/02 12:14:19;;;;;;;;;;;23.40;99.90;;;;;;5084789;28;19947;-73
2022/06/02 12:17:09;;;;;;;;;;;23.50;99.50;;;;;;5089729;28;19925;-73
2022/06/02 12:19:46;;;;;;;;;;;23.80;99.90;;;;;;5074077;28;20376;-73
2022/06/02 12:22:26;;;;;;;;;;;24.10;99.60;;;;;;5068039;28;20394;-73
2022/06/02 12:25:16;;;;;;;;;;;24.20;99.00;;;;;;5069197;28;20316;-72
2022/06/02 12:27:55;;;;;;;;;;;24.30;99.40;;;;;;5079790;28;20388;-75
2022/06/02 12:30:37;;;;;;;;;;;24.40;98.50;;;;;;5066623;28;20444;-75
2022/06/02 12:33:24;;;;;;;;;;;24.50;97.70;;;;;;5059784;28;19928;-74
2022/06/02 12:36:06;;;;;;;;;;;24.60;98.00;;;;;;5022490;28;19924;-73
2022/06/02 12:38:53;;;;;;;;;;;24.70;95.60;;;;;;5071362;28;19932;-73
2022/06/02 12:41:39;;;;;;;;;;;24.60;98.00;;;;;;5062596;28;19928;-73
2022/06/02 12:44:16;;;;;;;;;;;24.70;97.50;;;;;;5060450;28;19964;-73
2022/06/02 12:46:51;;;;;;;;;;;24.60;96.30;;;;;;5089301;28;20015;-73
2022/06/02 12:49:23;;;;;;;;;;;24.60;95.80;;;;;;5069457;28;20519;-73
2022/06/02 12:51:49;;;;;;;;;;;24.40;94.80;;;;;;5070249;28;19938;-73
2022/06/02 12:54:39;;;;;;;;;;;24.10;95.20;;;;;;5090285;28;19963;-73
2022/06/02 12:57:43;;;;;;;;;;;24.10;95.60;;;;;;5074749;28;19924;-73
2022/06/02 13:00:21;;;;;;;;;;;24.20;95.70;;;;;;5030014;28;19932;-73
2022/06/02 13:03:11;;;;;;;;;;;24.50;97.10;;;;;;5076111;28;19928;-74
2022/06/02 13:05:43;;;;;;;;;;;24.70;96.50;;;;;;5072054;28;20399;-73
2022/06/02 13:08:21;;;;;;;;;;;24.60;94.50;;;;;;5090106;28;19932;-73
2022/06/02 13:10:59;;;;;;;;;;;24.50;94.40;;;;;;5088089;28;21589;-73
2022/06/02 13:13:48;;;;;;;;;;;24.60;95.30;;;;;;5059631;28;19932;-74
2022/06/02 13:16:25;;;;;;;;;;;24.60;96.30;;;;;;5072608;28;20018;-74
2022/06/02 13:18:55;;;;;;;;;;;24.60;95.30;;;;;;5055938;28;19939;-73
2022/06/02 13:21:29;;;;;;;;;;;24.60;95.90;;;;;;5089565;28;20297;-73
2022/06/02 13:24:20;;;;;;;;;;;24.60;94.80;;;;;;5075253;28;20596;-73
2022/06/02 13:27:04;;;;;;;;;;;24.50;93.80;;;;;;5075698;28;19927;-73
2022/06/02 13:29:30;;;;;;;;;;;24.30;94.20;;;;;;5101618;28;19924;-73
2022/06/02 13:32:21;;;;;;;;;;;24.30;94.80;;;;;;5074017;28;19931;-73
2022/06/02 13:35:11;;;;;;;;;;;24.30;95.40;;;;;;5072590;28;19924;-73
2022/06/02 13:37:49;;;;;;;;;;;24.20;93.00;;;;;;5074546;28;19928;-73
2022/06/02 13:40:19;;;;;;;;;;;24.20;93.90;;;;;;5086875;28;19931;-73
2022/06/02 13:43:10;;;;;;;;;;;24.40;95.10;;;;;;5071205;28;19940;-73
2022/06/02 13:46:01;;;;;;;;;;;24.50;94.60;;;;;;5070802;28;19932;-74
2022/06/02 13:49:08;;;;;;;;;;;24.50;95.30;;;;;;5072015;28;19936;-73
2022/06/02 13:51:48;;;;;;;;;;;24.50;94.60;;;;;;5023792;28;19952;-73
2022/06/02 14:00:01;;;;;;;;;;;23.90;96.90;;;;;;5095159;28;19928;-73
2022/06/02 14:02:53;;;;;;;;;;;23.80;96.70;;;;;;5072730;28;19928;-73
2022/06/02 14:05:43;;;;;;;;;;;23.90;96.10;;;;;;5090725;28;19951;-73
2022/06/02 14:08:38;;;;;;;;;;;24.00;95.80;;;;;;5090303;28;19928;-73
2022/06/02 14:11:16;;;;;;;;;;;23.90;95.90;;;;;;5100567;28;19939;-73
2022/06/02 14:13:55;;;;;;;;;;;23.80;97.20;;;;;;5073863;28;20499;-73
2022/06/02 14:16:26;;;;;;;;;;;23.70;96.50;;;;;;5089858;28;19928;-73
2022/06/02 14:19:04;;;;;;;;;;;23.70;96.30;;;;;;5098495;28;19930;-73
2022/06/02 14:21:45;;;;;;;;;;;24.00;96.40;;;;;;5065515;28;19928;-73
2022/06/02 14:24:19;;;;;;;;;;;24.50;95.00;;;;;;5071652;28;19924;-73
2022/06/02 14:26:50;;;;;;;;;;;24.90;94.70;;;;;;5053091;28;20262;-73
2022/06/02 14:29:37;;;;;;;;;;;25.20;93.00;;;;;;5073573;28;19931;-74
2022/06/02 14:32:15;;;;;;;;;;;25.60;93.20;;;;;;5075079;28;19931;-74
2022/06/02 14:35:06;;;;;;;;;;;26.00;93.40;;;;;;5071529;28;19935;-74
2022/06/02 14:38:01;;;;;;;;;;;25.90;93.20;;;;;;5070197;28;19950;-73
2022/06/02 14:40:36;;;;;;;;;;;25.60;92.70;;;;;;5048290;28;19962;-73
2022/06/02 14:43:09;;;;;;;;;;;25.20;94.10;;;;;;5085459;28;19950;-73
2022/06/02 14:45:41;;;;;;;;;;;25.00;95.00;;;;;;5071195;28;20407;-73
2022/06/02 14:48:30;;;;;;;;;;;24.80;95.30;;;;;;5084977;28;20387;-73
2022/06/02 14:51:15;;;;;;;;;;;24.60;95.60;;;;;;5068280;28;19928;-73
2022/06/02 14:53:47;;;;;;;;;;;24.50;96.20;;;;;;5071746;28;20462;-73
2022/06/02 14:56:35;;;;;;;;;;;24.30;96.20;;;;;;5082945;28;19928;-73
2022/06/02 14:59:07;;;;;;;;;;;24.10;96.60;;;;;;5086484;28;19924;-73
2022/06/02 15:01:44;;;;;;;;;;;24.00;96.60;;;;;;5070633;28;20126;-73
2022/06/02 15:04:15;;;;;;;;;;;23.80;96.70;;;;;;5067868;28;19924;-73
2022/06/02 15:07:03;;;;;;;;;;;23.60;96.80;;;;;;5086183;28;20300;-74
2022/06/02 15:09:49;;;;;;;;;;;23.30;96.60;;;;;;5066734;28;20002;-74
2022/06/02 15:12:23;;;;;;;;;;;23.20;97.60;;;;;;5082305;28;19939;-73
2022/06/02 15:15:05;;;;;;;;;;;23.10;98.10;;;;;;5064295;28;19924;-73
2022/06/02 15:17:53;;;;;;;;;;;23.00;98.30;;;;;;5063798;28;19924;-74
2022/06/02 15:20:33;;;;;;;;;;;22.90;98.70;;;;;;5040892;28;20007;-76
2022/06/02 15:23:17;;;;;;;;;;;22.90;99.90;;;;;;5077516;28;19947;-73
2022/06/02 15:25:54;;;;;;;;;;;22.70;99.90;;;;;;5088860;28;19924;-72
2022/06/02 15:28:26;;;;;;;;;;;22.30;99.90;;;;;;5080391;28;20463;-72
2022/06/02 15:31:03;;;;;;;;;;;22.10;99.90;;;;;;5072494;28;19924;-72
2022/06/02 15:33:54;;;;;;;;;;;21.90;99.90;;;;;;5081669;28;19924;-72
2022/06/02 15:36:44;;;;;;;;;;;21.40;99.90;;;;;;5068082;28;20646;-72
2022/06/02 15:39:25;;;;;;;;;;;20.90;99.90;;;;;;5080535;28;20272;-72
2022/06/02 15:42:07;;;;;;;;;;;20.90;99.90;;;;;;5070890;28;19931;-73
2022/06/02 15:45:08;;;;;;;;;;;20.90;99.90;;;;;;5077365;28;19924;-73
2022/06/02 15:47:42;;;;;;;;;;;20.80;99.90;;;;;;5055077;28;19932;-72
2022/06/02 15:50:42;;;;;;;;;;;20.80;99.90;;;;;;5060566;28;19924;-74
2022/06/02 15:53:20;;;;;;;;;;;20.80;99.90;;;;;;5069981;28;19928;-73
2022/06/02 15:55:51;;;;;;;;;;;20.80;99.90;;;;;;5083694;28;20376;-74